createdAt,value
2018-08-23T00:01:33.524Z,101005.30
2018-08-23T00:06:39.891Z,101003.96
2018-08-23T00:11:46.474Z,101006.39
2018-08-23T00:16:49.556Z,101011.64
2018-08-23T00:21:52.505Z,101007.73
2018-08-23T00:26:57.563Z,101007.70
2018-08-23T00:32:03.030Z,100995.17
2018-08-23T00:37:06.577Z,100988.72
2018-08-23T00:42:11.329Z,100988.42
2018-08-23T00:47:14.309Z,100977.44
2018-08-23T00:52:20.829Z,100977.09
2018-08-23T00:57:23.818Z,100980.86
2018-08-23T01:02:26.805Z,100984.12
2018-08-23T01:07:31.957Z,100986.95
2018-08-23T01:12:58.410Z,100976.74
2018-08-23T01:18:14.430Z,100983.27
2018-08-23T01:23:17.440Z,100967.52
2018-08-23T01:28:20.449Z,100969.58
2018-08-23T01:33:23.469Z,100963.84
2018-08-23T01:38:26.643Z,100960.69
2018-08-23T01:43:29.678Z,100957.37
2018-08-23T01:48:32.951Z,100943.58
2018-08-23T01:53:37.731Z,100945.66
2018-08-23T01:58:40.917Z,100949.67
2018-08-23T02:03:44.351Z,100938.05
2018-08-23T02:08:47.386Z,100945.73
2018-08-23T02:13:50.422Z,100944.47
2018-08-23T02:18:53.422Z,100926.75
2018-08-23T02:23:56.445Z,100933.69
2018-08-23T02:28:59.509Z,100928.49
2018-08-23T02:34:02.498Z,100927.67
2018-08-23T02:39:09.394Z,100901.72
2018-08-23T02:44:12.458Z,100921.99
2018-08-23T02:49:16.039Z,100913.16
2018-08-23T02:54:19.062Z,100907.92
2018-08-23T02:59:22.232Z,100901.02
2018-08-23T03:04:27.095Z,100902.14
2018-08-23T03:09:35.426Z,100903.30
2018-08-23T03:14:39.421Z,100898.09
2018-08-23T03:20:03.136Z,100896.66
2018-08-23T03:25:12.298Z,100898.57
2018-08-23T03:30:16.555Z,100896.54
2018-08-23T03:35:19.606Z,100887.20
2018-08-23T03:40:22.637Z,100894.58
2018-08-23T03:45:28.222Z,100895.78
2018-08-23T03:50:35.835Z,100891.05
2018-08-23T03:55:38.862Z,100885.34
2018-08-23T04:01:00.898Z,100880.38
2018-08-23T04:06:22.921Z,100887.27
2018-08-23T04:11:25.966Z,100879.71
2018-08-23T04:16:30.110Z,100878.74
2018-08-23T04:21:33.217Z,100881.50
2018-08-23T04:26:37.065Z,100878.79
2018-08-23T04:31:41.667Z,100884.36
2018-08-23T04:36:44.921Z,100876.37
2018-08-23T04:41:49.222Z,100874.06
2018-08-23T04:46:52.260Z,100881.01
2018-08-23T04:51:55.473Z,100890.20
2018-08-23T04:56:59.408Z,100878.58
2018-08-23T05:02:02.617Z,100879.32
2018-08-23T05:07:05.673Z,100864.81
2018-08-23T05:12:08.681Z,100862.64
2018-08-23T05:17:11.682Z,100868.75
2018-08-23T05:22:14.766Z,100864.86
2018-08-23T05:27:17.800Z,100869.48
2018-08-23T05:32:20.859Z,100862.58
2018-08-23T05:37:23.905Z,100862.83
2018-08-23T05:42:49.733Z,100861.13
2018-08-23T05:47:52.770Z,100860.78
2018-08-23T05:52:55.785Z,100867.76
2018-08-23T05:58:12.109Z,100868.09
2018-08-23T06:03:15.698Z,100856.13
2018-08-23T06:08:18.778Z,100851.94
2018-08-23T06:13:21.829Z,100855.36
2018-08-23T06:18:25.583Z,100854.57
2018-08-23T06:23:57.026Z,100853.59
2018-08-23T06:29:00.042Z,100849.00
2018-08-23T06:34:03.189Z,100854.19
2018-08-23T06:39:06.818Z,100854.34
2018-08-23T06:44:09.929Z,100857.18
2018-08-23T06:49:12.952Z,100851.01
2018-08-23T06:54:15.970Z,100851.05
2018-08-23T06:59:19.017Z,100854.13
2018-08-23T07:04:22.083Z,100846.13
2018-08-23T07:09:25.129Z,100852.69
2018-08-23T07:14:28.158Z,100845.52
2018-08-23T07:19:33.049Z,100850.24
2018-08-23T07:24:49.745Z,100849.09
2018-08-23T07:29:55.581Z,100850.61
2018-08-23T07:35:15.232Z,100851.16
2018-08-23T07:40:19.964Z,100841.14
2018-08-23T07:45:23.419Z,100839.67
2018-08-23T07:50:26.454Z,100834.94
2018-08-23T07:55:29.590Z,100835.38
2018-08-23T08:00:39.013Z,100840.25
2018-08-23T08:05:43.321Z,100849.58
2018-08-23T08:10:46.307Z,100838.25
2018-08-23T08:15:49.314Z,100845.80
2018-08-23T08:21:02.185Z,100841.70
2018-08-23T08:26:05.047Z,100844.92
2018-08-23T08:31:08.101Z,100841.56
2018-08-23T08:36:11.302Z,100839.70
2018-08-23T08:41:14.346Z,100835.10
2018-08-23T08:46:17.357Z,100828.91
2018-08-23T08:51:26.942Z,100823.74
2018-08-23T08:56:35.479Z,100811.99
2018-08-23T09:01:38.624Z,100809.56
2018-08-23T09:06:43.896Z,100803.33
2018-08-23T09:11:47.019Z,100800.46
2018-08-23T09:16:50.087Z,100798.11
2018-08-23T09:22:04.441Z,100788.83
2018-08-23T09:27:16.463Z,100779.16
2018-08-23T09:32:25.148Z,100777.19
2018-08-23T09:37:29.927Z,100777.85
2018-08-23T09:42:34.233Z,100764.50
2018-08-23T09:47:37.321Z,100759.92
2018-08-23T09:52:45.140Z,100752.61
2018-08-23T09:57:48.174Z,100754.52
2018-08-23T10:02:56.886Z,100744.91
2018-08-23T10:08:08.462Z,100746.36
2018-08-23T10:13:17.144Z,100737.91
2018-08-23T10:18:26.989Z,100738.77
2018-08-23T10:23:30.014Z,100736.07
2018-08-23T10:28:38.680Z,100729.15
2018-08-23T10:33:41.719Z,100723.18
2018-08-23T10:38:46.135Z,100720.34
2018-08-23T10:43:49.300Z,100714.72
2018-08-23T10:48:52.318Z,100712.33
2018-08-23T10:53:55.358Z,100721.08
2018-08-23T10:59:00.520Z,100708.75
2018-08-23T11:04:04.880Z,100710.41
2018-08-23T11:09:13.523Z,100702.83
2018-08-23T11:14:22.105Z,100703.78
2018-08-23T11:19:30.758Z,100708.05
2018-08-23T11:24:34.085Z,100702.38
2018-08-23T11:29:37.277Z,100706.38
2018-08-23T11:34:40.322Z,100698.15
2018-08-23T11:39:43.371Z,100692.60
2018-08-23T11:44:46.463Z,100693.58
2018-08-23T11:49:49.486Z,100689.02
2018-08-23T11:54:52.530Z,100685.97
2018-08-23T11:59:55.611Z,100677.84
2018-08-23T12:04:58.636Z,100676.68
2018-08-23T12:10:01.840Z,100667.08
2018-08-23T12:15:05.423Z,100662.09
2018-08-23T12:20:09.743Z,100668.91
2018-08-23T12:25:13.273Z,100668.28
2018-08-23T12:30:16.343Z,100658.61
2018-08-23T12:35:19.758Z,100657.20
2018-08-23T12:40:28.693Z,100565.13
2018-08-23T12:45:31.880Z,100643.97
2018-08-23T12:50:35.034Z,100639.93
2018-08-23T12:55:38.073Z,100625.84
2018-08-23T13:00:42.012Z,100621.48
2018-08-23T13:05:45.101Z,100614.56
2018-08-23T13:10:48.122Z,100611.12
2018-08-23T13:15:51.238Z,100613.52
2018-08-23T13:20:54.386Z,100609.07
2018-08-23T13:25:58.231Z,100597.17
2018-08-23T13:31:01.229Z,100593.44
2018-08-23T13:36:04.457Z,100588.77
2018-08-23T13:41:07.552Z,100593.94
2018-08-23T13:46:10.590Z,100571.78
2018-08-23T13:51:13.672Z,100585.92
2018-08-23T13:56:16.692Z,100573.78
2018-08-23T14:01:24.168Z,100569.36
2018-08-23T14:06:27.279Z,100574.17
2018-08-23T14:11:30.307Z,100568.42
2018-08-23T14:16:33.531Z,100555.95
2018-08-23T14:21:36.593Z,100565.78
2018-08-23T14:26:39.614Z,100554.26
2018-08-23T14:31:43.183Z,100549.89
2018-08-23T14:36:46.370Z,100543.21
2018-08-23T14:41:49.438Z,100530.38
2018-08-23T14:46:58.019Z,100525.73
2018-08-23T14:52:01.130Z,100536.67
2018-08-23T14:57:10.202Z,100530.02
2018-08-23T15:02:13.532Z,100519.40
2018-08-23T15:07:16.995Z,100522.48
2018-08-23T15:12:20.182Z,100522.82
2018-08-23T15:17:23.593Z,100519.14
2018-08-23T15:30:33.549Z,100504.61
2018-08-23T15:35:36.546Z,100503.13
2018-08-23T15:40:39.597Z,100497.38
2018-08-23T15:45:43.167Z,100493.95
2018-08-23T15:50:46.293Z,100488.98
2018-08-23T15:55:49.644Z,100484.79
2018-08-23T16:00:52.613Z,100492.47
2018-08-23T16:05:55.635Z,100486.07
2018-08-23T16:10:58.663Z,100479.71
2018-08-23T16:16:07.288Z,100392.53
2018-08-23T16:21:10.307Z,100475.13
2018-08-23T16:26:13.393Z,100468.81
2018-08-23T16:31:16.617Z,100470.82
2018-08-23T16:36:19.649Z,100469.41
2018-08-23T16:41:22.853Z,100457.35
2018-08-23T16:46:26.072Z,100456.18
2018-08-23T16:51:29.114Z,100451.16
2018-08-23T16:56:32.139Z,100452.69
2018-08-23T17:01:35.187Z,100451.47
2018-08-23T17:06:38.262Z,100449.18
2018-08-23T17:11:41.490Z,100442.23
2018-08-23T17:16:50.286Z,100440.11
2018-08-23T17:21:53.319Z,100442.31
2018-08-23T17:26:56.355Z,100440.48
2018-08-23T17:31:59.526Z,100426.42
2018-08-23T17:37:02.662Z,100425.70
2018-08-23T17:42:06.004Z,100417.49
2018-08-23T17:47:09.137Z,100424.50
2018-08-23T17:52:12.387Z,100414.27
2018-08-23T17:57:15.394Z,100423.22
2018-08-23T18:02:19.363Z,100421.94
2018-08-23T18:07:22.478Z,100427.53
2018-08-23T18:12:25.558Z,100431.17
2018-08-23T18:17:28.575Z,100427.34
2018-08-23T18:22:31.658Z,100406.70
2018-08-23T18:27:34.851Z,100427.23
2018-08-23T18:32:37.996Z,100430.80
2018-08-23T18:37:40.963Z,100429.78
2018-08-23T18:42:44.326Z,100439.66
2018-08-23T18:47:47.418Z,100439.14
2018-08-23T18:52:50.733Z,100451.73
2018-08-23T18:57:53.770Z,100461.44
2018-08-23T19:02:57.073Z,100463.95
2018-08-23T19:08:00.290Z,100465.38
2018-08-23T19:13:03.837Z,100475.39
2018-08-23T19:18:07.063Z,100480.70
2018-08-23T19:23:10.181Z,100473.23
2018-08-23T19:28:13.211Z,100476.34
2018-08-23T19:33:16.626Z,100479.31
2018-08-23T19:38:19.686Z,100484.31
2018-08-23T19:43:22.724Z,100483.09
2018-08-23T19:48:25.775Z,100481.70
2018-08-23T19:53:28.944Z,100493.69
2018-08-23T19:58:31.990Z,100482.05
2018-08-23T20:03:35.125Z,100492.03
2018-08-23T20:08:38.238Z,100493.61
2018-08-23T20:13:41.369Z,100493.06
2018-08-23T20:18:44.532Z,100486.26
2018-08-23T20:23:47.539Z,100482.33
2018-08-23T20:28:50.565Z,100486.12
2018-08-23T20:33:53.636Z,100482.20
2018-08-23T20:38:56.662Z,100483.11
2018-08-23T20:43:59.860Z,100479.42
2018-08-23T20:49:02.926Z,100473.89
2018-08-23T20:54:07.291Z,100476.57
2018-08-23T20:59:10.330Z,100472.22
2018-08-23T21:04:13.470Z,100476.14
2018-08-23T21:09:16.433Z,100470.41
2018-08-23T21:14:21.222Z,100479.00
2018-08-23T21:19:24.293Z,100480.75
2018-08-23T21:24:27.314Z,100481.50
2018-08-23T21:29:30.303Z,100485.66
2018-08-23T21:34:34.959Z,100483.77
2018-08-23T21:39:38.047Z,100476.27
2018-08-23T21:44:41.050Z,100476.68
2018-08-23T21:49:44.331Z,100481.58
2018-08-23T21:54:47.418Z,100477.12
2018-08-23T21:59:50.413Z,100471.02
2018-08-23T22:04:54.548Z,100468.98
2018-08-23T22:09:57.601Z,100463.70
2018-08-23T22:15:00.581Z,100463.39
2018-08-23T22:20:03.698Z,100468.28
2018-08-23T22:25:06.758Z,100460.05
2018-08-23T22:30:09.822Z,100461.22
2018-08-23T22:35:12.776Z,100459.27
2018-08-23T22:40:15.751Z,100452.03
2018-08-23T22:45:18.802Z,100455.52
2018-08-23T22:50:21.807Z,100447.37
2018-08-23T22:55:24.834Z,100441.46
2018-08-23T23:00:33.682Z,100452.14
2018-08-23T23:05:36.715Z,100434.70
2018-08-23T23:10:39.925Z,100436.71
2018-08-23T23:15:42.928Z,100430.94
2018-08-23T23:20:45.949Z,100426.98
2018-08-23T23:25:48.982Z,100404.69
2018-08-23T23:30:51.955Z,100419.83
2018-08-23T23:35:54.928Z,100412.02
2018-08-23T23:40:57.909Z,100409.92
2018-08-23T23:46:00.922Z,100406.54
2018-08-23T23:51:04.535Z,100395.52
2018-08-23T23:56:07.537Z,100395.80
